Latest Weather Observations for Dunalley

IDT60901

Issued at 2:01 pm EDT Monday 8 March 2021 (issued every 10 minutes, with the page automatically refreshed every 10 minutes)

About weather observations | Map of Hobart area stations | Latest observations for Hobart area | Other Formats
Station Details ID: 094254 Name: DUNALLEY (STROUD POINT) Lat: -42.90 Lon: 147.79 Height: 12.43 m
Data from the previous 72 hours. | See also: Recent months at Dunalley
Date/Time
EDT
Temp
°C
App
Temp
°C
Dew
Point
°C
Rel
Hum
%
Delta-T
°C
Wind Press
QNH
hPa
Press
MSL
hPa
Rain since
9am
mm
Dir  Spd
km/h
Gust
km/h
Spd
kts
Gust
kts
08/02:00pm 18.7 18.0 11.5 63 4.0 SE 6 7 3 4 1009.0 1009.0 0.0
08/01:30pm 19.1 18.4 12.1 64 3.9 SSE 7 9 4 5 1009.2 1009.2 0.0
08/01:00pm 18.9 18.8 13.3 70 3.2 SSW 6 7 3 4 1009.4 1009.4 0.0
08/12:30pm 17.4 16.7 11.9 70 3.0 SW 7 9 4 5 1009.8 1009.8 0.0
08/12:00pm 17.9 17.4 12.6 71 3.0 SW 7 9 4 5 1010.2 1010.2 0.0
08/11:30am 17.2 16.6 12.3 73 2.7 SSW 7 7 4 4 1010.6 1010.6 0.0
08/11:00am 16.8 16.1 11.9 73 2.7 SW 7 7 4 4 1010.7 1010.7 0.0
08/10:30am 16.4 15.6 11.8 74 2.5 SW 7 9 4 5 1010.8 1010.8 0.0
08/10:00am 16.6 15.3 12.4 76 2.3 WSW 11 13 6 7 1010.8 1010.8 0.0
08/09:30am 16.4 15.9 12.8 79 2.0 W 7 11 4 6 1010.9 1010.9 0.0
08/09:00am 15.4 14.5 12.5 83 1.6 ESE 9 11 5 6 1010.8 1010.8 0.0
08/08:30am 14.9 14.9 12.4 85 1.4 ESE 4 6 2 3 1010.8 1010.8 0.0
08/08:00am 13.9 13.2 11.4 85 1.3 ESE 6 6 3 3 1010.4 1010.4 0.0
08/07:30am 13.5 13.1 11.0 85 1.3 ESE 4 4 2 2 1010.2 1010.2 0.0
08/07:00am 13.3 12.2 10.8 85 1.3 ESE 7 9 4 5 1009.9 1009.9 0.0
08/06:30am 13.7 14.0 11.0 84 1.4 CALM 0 0 0 0 1009.5 1009.5 0.0
08/06:00am 13.5 13.8 10.9 84 1.4 CALM 0 0 0 0 1009.5 1009.5 0.0
08/05:30am 13.6 13.6 11.0 84 1.4 ESE 2 4 1 2 1009.6 1009.6 0.0
08/05:00am 14.4 13.8 11.6 83 1.5 ESE 6 7 3 4 1009.4 1009.4 0.0
08/04:30am 14.7 14.9 11.7 82 1.6 ESE 2 4 1 2 1009.7 1009.7 0.0
08/04:00am 14.9 14.7 11.7 81 1.7 ESE 4 7 2 4 1010.0 1010.0 0.0
08/03:30am 14.4 14.4 11.2 81 1.7 ESE 2 4 1 2 1010.1 1010.1 0.0
08/03:00am 14.3 13.8 10.9 80 1.8 ESE 4 6 2 3 1010.0 1010.0 0.0
08/02:30am 14.3 13.8 10.7 79 1.9 ESE 4 6 2 3 1010.3 1010.3 0.0
08/02:00am 14.4 14.7 10.8 79 1.9 CALM 0 0 0 0 1010.4 1010.4 0.0
08/01:30am 14.3 14.5 10.7 79 1.9 CALM 0 0 0 0 1010.6 1010.6 0.0
08/01:00am 14.4 14.6 10.6 78 2.0 CALM 0 0 0 0 1010.7 1010.7 0.0
08/12:30am 14.7 14.6 10.7 77 2.1 ESE 2 6 1 3 1010.7 1010.7 0.0
08/12:00am 14.5 14.7 10.5 77 2.1 CALM 0 2 0 1 1010.9 1010.9 0.0
 
Date/Time
EDT
Temp
°C
App
Temp
°C
Dew
Point
°C
Rel
Hum
%
Delta-T
°C
Wind Press
QNH
hPa
Press
MSL
hPa
Rain since
9am
mm
Dir  Spd
km/h
Gust
km/h
Spd
kts
Gust
kts
07/11:30pm 14.6 14.0 10.4 76 2.2 ESE 4 4 2 2 1011.1 1011.1 0.0
07/11:00pm 15.2 14.3 10.8 75 2.3 ESE 6 7 3 4 1011.2 1011.2 0.0
07/10:30pm 15.0 15.2 10.4 74 2.4 CALM 0 0 0 0 1011.4 1011.4 0.0
07/10:00pm 15.1 14.5 10.3 73 2.5 ESE 4 6 2 3 1011.3 1011.3 0.0
07/09:30pm 15.1 15.2 10.3 73 2.5 CALM 0 0 0 0 1011.2 1011.2 0.0
07/09:00pm 15.1 15.2 10.1 72 2.6 CALM 0 2 0 1 1011.1 1011.1 0.0
07/08:30pm 15.4 14.4 10.4 72 2.6 ESE 6 9 3 5 1010.4 1010.4 0.0
07/08:00pm 15.3 13.7 10.3 72 2.6 ESE 9 11 5 6 1010.4 1010.4 0.0
07/07:30pm 15.6 13.7 10.4 71 2.7 SE 11 13 6 7 1010.2 1010.2 0.0
07/07:00pm 16.3 14.0 10.6 69 3.0 ESE 13 20 7 11 1010.1 1010.1 0.0
07/06:30pm 16.8 14.5 10.6 67 3.3 E 13 17 7 9 1009.9 1009.9 0.0
07/06:00pm 17.0 13.6 10.6 66 3.4 ENE 19 24 10 13 1009.9 1009.9 0.0
07/05:30pm 17.6 14.1 10.2 62 3.9 ENE 19 26 10 14 1009.6 1009.6 0.0
07/05:00pm 18.1 14.5 10.7 62 4.0 NE 20 24 11 13 1009.7 1009.7 0.0
07/04:30pm 18.4 15.1 10.8 61 4.1 NE 19 24 10 13 1009.6 1009.6 0.0
07/04:00pm 19.8 17.6 10.8 56 4.9 ENE 13 19 7 10 1009.8 1009.8 0.0
07/03:30pm 18.3 16.6 11.1 63 3.9 SSE 11 15 6 8 1009.9 1009.9 0.0
07/03:00pm 19.1 17.3 10.9 59 4.5 S 11 13 6 7 1010.1 1010.1 0.0
07/02:30pm 19.1 17.2 10.4 57 4.7 SSE 11 13 6 7 1010.5 1010.5 0.0
07/02:00pm 17.7 16.4 9.8 60 4.2 SSE 7 7 4 4 1010.8 1010.8 0.0
07/01:30pm 17.7 16.6 10.6 63 3.8 SSE 7 9 4 5 1011.1 1011.1 0.0
07/01:00pm 17.3 16.1 9.7 61 4.0 S 6 7 3 4 1011.2 1011.2 0.0
07/12:30pm 17.1 15.9 10.2 64 3.7 SSE 7 9 4 5 1011.6 1011.6 0.0
07/12:00pm 16.8 15.6 10.4 66 3.4 S 7 9 4 5 1011.8 1011.8 0.0
07/11:30am 15.7 14.2 9.1 65 3.4 SSE 7 9 4 5 1012.1 1012.1 0.0
07/11:00am 15.7 14.3 9.4 66 3.3 S 7 9 4 5 1012.2 1012.2 0.0
07/10:30am 15.3 13.9 9.7 69 2.9 S 7 9 4 5 1012.5 1012.5 0.0
07/10:00am 14.7 14.0 10.1 74 2.4 S 4 6 2 3 1012.4 1012.4 0.0
07/09:30am 14.1 13.2 10.5 79 1.9 S 6 7 3 4 1012.5 1012.5 0.0
07/09:00am 13.5 12.9 10.5 82 1.6 S 4 6 2 3 1012.7 1012.7 0.0
07/08:30am 13.1 12.6 10.8 86 1.2 S 4 6 2 3 1012.8 1012.8 0.0
07/08:00am 12.3 11.3 10.4 88 1.0 S 6 6 3 3 1012.9 1012.9 0.0
07/07:30am 10.8 9.5 9.1 89 0.8 S 6 7 3 4 1012.8 1012.8 0.0
07/07:00am 9.8 8.2 8.1 89 0.8 S 6 7 3 4 1012.6 1012.6 0.0
07/06:30am 9.5 7.8 7.6 88 0.9 S 6 7 3 4 1012.5 1012.5 0.0
07/06:00am 9.8 8.2 7.9 88 0.9 S 6 7 3 4 1012.3 1012.3 0.0
07/05:30am 9.8 8.0 7.9 88 0.9 S 7 9 4 5 1012.5 1012.5 0.0
07/05:00am 10.0 8.2 7.9 87 1.0 S 7 9 4 5 1012.8 1012.8 0.0
07/04:30am 10.4 8.7 8.2 86 1.1 S 7 9 4 5 1012.8 1012.8 0.0
07/04:00am 10.4 8.6 8.0 85 1.2 S 7 9 4 5 1013.1 1013.1 0.0
07/03:30am 10.5 8.7 8.1 85 1.2 S 7 9 4 5 1013.3 1013.3 0.0
07/03:00am 10.8 9.2 8.2 84 1.3 S 6 6 3 3 1013.5 1013.5 0.0
07/02:30am 10.7 8.9 8.1 84 1.3 S 7 9 4 5 1013.7 1013.7 0.0
07/02:00am 11.0 9.4 8.2 83 1.4 S 6 6 3 3 1014.1 1014.1 0.0
07/01:30am 11.1 9.3 8.1 82 1.5 S 7 9 4 5 1014.4 1014.4 0.0
07/01:00am 10.8 8.8 7.3 79 1.7 S 7 9 4 5 1014.7 1014.7 0.0
07/12:30am 11.5 9.7 7.2 75 2.1 S 6 6 3 3 1015.1 1015.1 0.0
07/12:00am 12.6 11.4 8.1 74 2.2 S 4 7 2 4 1015.3 1015.3 0.0
 
Date/Time
EDT
Temp
°C
App
Temp
°C
Dew
Point
°C
Rel
Hum
%
Delta-T
°C
Wind Press
QNH
hPa
Press
MSL
hPa
Rain since
9am
mm
Dir  Spd
km/h
Gust
km/h
Spd
kts
Gust
kts
06/11:30pm 11.9 10.1 7.2 73 2.3 S 6 9 3 5 1015.6 1015.6 0.0
06/11:00pm 12.4 10.5 7.7 73 2.3 S 7 9 4 5 1015.7 1015.7 0.0
06/10:30pm 12.5 11.1 7.4 71 2.5 S 4 6 2 3 1015.7 1015.7 0.0
06/10:00pm 13.1 11.9 8.0 71 2.5 S 4 6 2 3 1015.5 1015.5 0.0
06/09:30pm 13.2 11.4 8.1 71 2.5 S 7 9 4 5 1015.2 1015.2 0.0
06/09:00pm 13.6 10.3 8.2 70 2.7 S 15 19 8 10 1015.2 1015.2 0.0
06/08:30pm 13.7 10.0 8.1 69 2.8 SSW 17 20 9 11 1015.0 1015.0 0.0
06/08:00pm 13.7 9.7 8.1 69 2.8 SSW 19 22 10 12 1015.1 1015.1 0.0
06/07:30pm 13.9 9.7 8.3 69 2.8 S 20 26 11 14 1014.7 1014.7 0.0
06/07:00pm 14.1 9.1 8.1 67 3.0 S 24 30 13 16 1014.6 1014.6 0.0
06/06:30pm 14.4 9.3 7.7 64 3.3 SSW 24 30 13 16 1014.8 1014.8 0.0
06/06:00pm 14.5 8.7 7.8 64 3.3 S 28 33 15 18 1014.7 1014.7 0.0
06/05:30pm 15.7 10.2 7.7 59 4.0 SSW 26 33 14 18 1014.8 1014.8 0.0
06/05:00pm 15.7 9.5 8.0 60 3.9 S 30 35 16 19 1014.6 1014.6 0.0
06/04:30pm 15.8 9.5 7.3 57 4.2 SSW 30 37 16 20 1014.6 1014.6 0.0
06/04:00pm 16.4 10.7 6.8 53 4.7 SSW 26 33 14 18 1014.5 1014.5 0.0
06/03:30pm 16.5 10.6 7.4 55 4.5 SSW 28 32 15 17 1014.4 1014.4 0.0
06/03:00pm 15.9 10.4 7.4 57 4.2 SSW 26 32 14 17 1014.6 1014.6 0.0
06/02:30pm 15.1 9.7 7.9 62 3.6 SW 26 32 14 17 1014.9 1014.9 0.0
06/02:00pm 15.1 8.6 8.3 64 3.4 SW 32 37 17 20 1014.9 1014.9 0.0
06/01:30pm 15.4 9.3 8.4 63 3.5 WSW 30 37 16 20 1014.9 1014.9 0.0
06/01:00pm 14.7 8.2 8.2 65 3.3 WSW 32 39 17 21 1014.9 1014.9 0.0
06/12:30pm 14.3 8.3 8.7 69 2.8 WSW 30 35 16 19 1015.2 1015.2 0.0
06/12:00pm 13.6 7.2 9.3 75 2.2 WSW 33 37 18 20 1015.1 1015.1 0.0
06/11:30am 12.2 5.9 8.9 80 1.6 W 32 39 17 21 1015.3 1015.3 0.0
06/11:00am 12.6 5.8 9.4 81 1.6 WSW 35 41 19 22 1015.4 1015.4 0.0
06/10:30am 12.9 6.5 9.5 80 1.7 WSW 33 39 18 21 1015.4 1015.4 0.0
06/10:00am 12.0 6.2 9.4 84 1.3 WSW 30 37 16 20 1015.1 1015.1 0.0
06/09:30am 11.7 5.4 9.1 84 1.3 WSW 32 37 17 20 1014.9 1014.9 0.0
06/09:00am 11.8 4.6 9.0 83 1.4 WSW 37 43 20 23 1014.7 1014.7 0.0
06/08:30am 11.9 6.2 8.4 79 1.7 SW 28 37 15 20 1014.6 1014.6 0.0
06/08:00am 12.1 5.3 7.6 74 2.2 SW 33 43 18 23 1014.5 1014.5 0.0
06/07:30am 12.4 5.8 8.5 77 1.9 SW 33 43 18 23 1014.0 1014.0 0.0
06/07:00am 11.7 4.6 8.0 78 1.8 SW 35 44 19 24 1013.9 1013.9 0.0
06/06:30am 12.4 5.7 7.3 71 2.5 SW 32 41 17 22 1013.6 1013.6 0.0
06/06:00am 12.4 5.2 7.5 72 2.4 SW 35 43 19 23 1013.5 1013.5 0.0
06/05:30am 12.1 5.3 7.8 75 2.1 SW 33 43 18 23 1013.3 1013.3 0.0
06/05:00am 12.1 4.5 7.4 73 2.3 SW 37 43 20 23 1013.2 1013.2 0.0
06/04:30am 12.4 5.1 7.3 71 2.5 SW 35 48 19 26 1013.2 1013.2 0.0
06/04:00am 12.6 3.5 6.6 67 2.9 SW 44 54 24 29 1013.1 1013.1 0.0
06/03:30am 12.7 4.1 6.5 66 3.0 SW 41 48 22 26 1013.0 1013.0 0.0
06/03:00am 12.7 3.6 6.1 64 3.1 SW 43 54 23 29 1013.1 1013.1 0.0
06/02:30am 12.8 4.3 7.0 68 2.8 SW 41 52 22 28 1013.2 1013.2 0.0
06/02:00am 12.7 3.1 6.3 65 3.0 SSW 46 61 25 33 1013.6 1013.6 0.0
06/01:52am 12.8 4.1 6.2 64 3.1 SW 41 61 22 33 1013.6 1013.6 0.0
06/01:30am 12.7 3.8 5.1 60 3.5 SW 41 56 22 30 1013.7 1013.7 0.0
06/01:00am 12.8 2.7 5.5 61 3.4 SW 48 57 26 31 1013.7 1013.7 0.0
06/12:30am 12.8 4.1 6.2 64 3.1 SW 41 59 22 32 1013.9 1013.9 0.0
06/12:28am 12.9 4.6 6.3 64 3.1 SW 39 59 21 32 1013.9 1013.9 0.0
06/12:00am 13.0 4.3 6.1 63 3.3 SW 41 50 22 27 1014.0 1014.0 0.0
 
Date/Time
EDT
Temp
°C
App
Temp
°C
Dew
Point
°C
Rel
Hum
%
Delta-T
°C
Wind Press
QNH
hPa
Press
MSL
hPa
Rain since
9am
mm
Dir  Spd
km/h
Gust
km/h
Spd
kts
Gust
kts
05/11:30pm 13.1 4.9 6.5 64 3.2 SW 39 52 21 28 1014.0 1014.0 0.0
05/11:00pm 13.0 3.8 6.4 64 3.1 SW 44 56 24 30 1014.0 1014.0 0.0
05/10:30pm 12.9 3.4 6.5 65 3.1 SSW 46 59 25 32 1013.9 1013.9 0.0
05/10:00pm 13.1 3.9 6.5 64 3.2 SW 44 59 24 32 1013.7 1013.7 0.0
05/09:30pm 13.0 4.0 6.6 65 3.1 SW 43 52 23 28 1013.5 1013.5 0.0
05/09:00pm 12.9 3.9 6.3 64 3.1 SW 43 52 23 28 1013.4 1013.4 0.0
05/08:30pm 12.9 3.2 6.0 63 3.3 SW 46 54 25 29 1013.2 1013.2 0.0
05/08:16pm 12.9 3.5 5.6 61 3.4 SW 44 63 24 34 1012.8 1012.8 0.0
05/08:00pm 13.0 2.5 5.7 61 3.4 SW 50 61 27 33 1012.9 1012.9 0.0
05/07:30pm 12.4 4.0 7.3 71 2.5 SW 41 48 22 26 1012.7 1012.7 0.0
05/07:00pm 12.1 1.5 7.0 71 2.4 SW 52 61 28 33 1012.4 1012.4 0.0
05/06:30pm 13.0 2.9 7.2 68 2.8 SW 50 61 27 33 1012.0 1012.0 0.0
05/06:11pm 12.7 3.3 7.2 69 2.7 SW 46 65 25 35 1011.8 1011.8 0.0
05/06:00pm 12.7 3.3 7.2 69 2.7 SW 46 59 25 32 1011.7 1011.7 0.0
05/05:30pm 12.7 3.2 6.5 66 3.0 SW 46 56 25 30 1011.6 1011.6 0.0
05/05:00pm 11.9 0.5 6.8 71 2.4 SW 56 65 30 35 1011.5 1011.5 0.0
05/04:30pm 13.4 1.7 5.3 58 3.8 SSW 56 65 30 35 1011.2 1011.2 0.0
05/04:00pm 13.3 1.4 5.2 58 3.8 SSW 57 69 31 37 1011.2 1011.2 0.0
05/03:50pm 14.4 3.9 5.7 56 4.1 SW 50 69 27 37 1011.3 1011.3 0.0
05/03:30pm 13.4 2.4 6.7 64 3.2 SW 54 67 29 36 1011.3 1011.3 0.0
05/03:00pm 13.5 2.5 6.6 63 3.3 SW 54 65 29 35 1011.0 1011.0 0.0
05/02:30pm 13.0 1.5 7.0 67 2.9 SW 57 72 31 39 1011.0 1011.0 0.0

Latest Capital City Observations: Canberra | Sydney | Melbourne | Brisbane | Adelaide | Perth | Hobart | Darwin

Other formats

Comma delimited format used in spreadsheet applications
http://www.bom.gov.au/fwo/IDT60901/IDT60901.94951.axf

JavaScript Object Notation format (JSON) in row-major order
http://www.bom.gov.au/fwo/IDT60901/IDT60901.94951.json

Data quality

Most of these data are generated automatically and are frequently updated. Quality checks on data are not normally performed. It is possible for incorrect values to appear. Refer to information at About Latest Weather Observations and please check the disclaimer before using these data.